sensor_id;sensor_type;location;lat;lon;timestamp;pressure;altitude;pressure_sealevel;temperature;humidity
60820;BME280;46641;48.904;9.126;2023-04-25T00:04:48;97973.06;;;16.08;48.94
60820;BME280;46641;48.904;9.126;2023-04-25T00:09:38;97967.78;;;16.08;49.08
60820;BME280;46641;48.904;9.126;2023-04-25T00:14:29;97957.44;;;16.06;49.22
60820;BME280;46641;48.904;9.126;2023-04-25T00:19:20;97961.91;;;16.06;49.20
60820;BME280;46641;48.904;9.126;2023-04-25T00:24:10;97962.28;;;16.03;49.23
60820;BME280;46641;48.904;9.126;2023-04-25T00:29:01;97964.50;;;15.99;49.33
60820;BME280;46641;48.904;9.126;2023-04-25T00:33:51;97968.94;;;15.99;49.31
60820;BME280;46641;48.904;9.126;2023-04-25T00:38:43;97974.22;;;15.99;49.24
60820;BME280;46641;48.904;9.126;2023-04-25T00:43:33;97972.81;;;15.96;48.83
60820;BME280;46641;48.904;9.126;2023-04-25T00:48:24;97956.16;;;15.96;49.10
60820;BME280;46641;48.904;9.126;2023-04-25T00:53:14;97961.19;;;15.91;49.51
60820;BME280;46641;48.904;9.126;2023-04-25T00:58:04;97941.09;;;15.89;49.51
60820;BME280;46641;48.904;9.126;2023-04-25T01:02:55;97932.56;;;15.87;49.38
60820;BME280;46641;48.904;9.126;2023-04-25T01:07:45;97928.31;;;15.86;49.65
60820;BME280;46641;48.904;9.126;2023-04-25T01:12:35;97931.94;;;15.85;50.07
60820;BME280;46641;48.904;9.126;2023-04-25T01:17:26;97935.78;;;15.83;49.61
60820;BME280;46641;48.904;9.126;2023-04-25T01:22:17;97937.59;;;15.82;49.65
60820;BME280;46641;48.904;9.126;2023-04-25T01:27:08;97934.34;;;15.80;49.72
60820;BME280;46641;48.904;9.126;2023-04-25T01:31:59;97932.69;;;15.79;49.80
60820;BME280;46641;48.904;9.126;2023-04-25T01:36:51;97933.13;;;15.76;49.61
60820;BME280;46641;48.904;9.126;2023-04-25T01:41:41;97936.75;;;15.75;49.86
60820;BME280;46641;48.904;9.126;2023-04-25T01:46:33;97936.16;;;15.73;49.78
60820;BME280;46641;48.904;9.126;2023-04-25T01:51:23;97934.31;;;15.74;49.77
60820;BME280;46641;48.904;9.126;2023-04-25T01:56:13;97933.50;;;15.73;49.62
60820;BME280;46641;48.904;9.126;2023-04-25T02:01:04;97941.59;;;15.72;49.84
60820;BME280;46641;48.904;9.126;2023-04-25T02:05:54;97935.91;;;15.68;49.75
60820;BME280;46641;48.904;9.126;2023-04-25T02:10:45;97931.78;;;15.65;49.81
60820;BME280;46641;48.904;9.126;2023-04-25T02:15:35;97923.28;;;15.63;49.82
60820;BME280;46641;48.904;9.126;2023-04-25T02:20:25;97924.84;;;15.58;49.92
60820;BME280;46641;48.904;9.126;2023-04-25T02:25:18;97931.75;;;15.59;50.02
60820;BME280;46641;48.904;9.126;2023-04-25T02:30:10;97920.78;;;15.55;50.06
60820;BME280;46641;48.904;9.126;2023-04-25T02:35:01;97914.88;;;15.53;50.02
60820;BME280;46641;48.904;9.126;2023-04-25T02:39:53;97921.53;;;15.49;50.22
60820;BME280;46641;48.904;9.126;2023-04-25T02:44:44;97910.19;;;15.49;50.33
60820;BME280;46641;48.904;9.126;2023-04-25T02:49:34;97916.66;;;15.46;50.31
60820;BME280;46641;48.904;9.126;2023-04-25T02:54:24;97917.69;;;15.45;50.43
60820;BME280;46641;48.904;9.126;2023-04-25T02:59:15;97904.66;;;15.43;50.31
60820;BME280;46641;48.904;9.126;2023-04-25T03:04:05;97903.03;;;15.42;50.03
60820;BME280;46641;48.904;9.126;2023-04-25T03:08:55;97897.34;;;15.39;50.42
60820;BME280;46641;48.904;9.126;2023-04-25T03:13:45;97891.44;;;15.37;50.28
60820;BME280;46641;48.904;9.126;2023-04-25T03:18:36;97898.53;;;15.36;50.48
60820;BME280;46641;48.904;9.126;2023-04-25T03:23:26;97898.53;;;15.36;50.19
60820;BME280;46641;48.904;9.126;2023-04-25T03:28:16;97895.91;;;15.36;50.24
60820;BME280;46641;48.904;9.126;2023-04-25T03:33:07;97895.47;;;15.33;50.34
60820;BME280;46641;48.904;9.126;2023-04-25T03:37:57;97902.16;;;15.29;50.39
60820;BME280;46641;48.904;9.126;2023-04-25T03:42:47;97897.91;;;15.28;50.49
60820;BME280;46641;48.904;9.126;2023-04-25T03:47:37;97889.34;;;15.26;50.56
60820;BME280;46641;48.904;9.126;2023-04-25T03:52:28;97885.28;;;15.23;50.57
60820;BME280;46641;48.904;9.126;2023-04-25T03:57:18;97900.28;;;15.23;50.88
60820;BME280;46641;48.904;9.126;2023-04-25T04:02:08;97902.50;;;15.19;50.69
60820;BME280;46641;48.904;9.126;2023-04-25T04:06:59;97896.59;;;15.17;50.71
60820;BME280;46641;48.904;9.126;2023-04-25T04:11:49;97893.94;;;15.17;50.86
60820;BME280;46641;48.904;9.126;2023-04-25T04:16:39;97897.81;;;15.14;50.91
60820;BME280;46641;48.904;9.126;2023-04-25T04:21:30;97899.81;;;15.12;51.04
60820;BME280;46641;48.904;9.126;2023-04-25T04:26:21;97904.28;;;15.12;50.80
60820;BME280;46641;48.904;9.126;2023-04-25T04:31:14;97899.16;;;15.10;50.97
60820;BME280;46641;48.904;9.126;2023-04-25T04:36:06;97898.34;;;15.10;50.93
60820;BME280;46641;48.904;9.126;2023-04-25T04:40:57;97901.38;;;15.07;51.00
60820;BME280;46641;48.904;9.126;2023-04-25T04:45:48;97913.94;;;15.05;51.04
60820;BME280;46641;48.904;9.126;2023-04-25T04:50:40;97911.91;;;15.07;50.93
60820;BME280;46641;48.904;9.126;2023-04-25T04:55:31;97922.03;;;15.03;51.15
60820;BME280;46641;48.904;9.126;2023-04-25T05:00:21;97927.31;;;15.03;51.05
60820;BME280;46641;48.904;9.126;2023-04-25T05:05:11;97931.94;;;15.01;51.11
60820;BME280;46641;48.904;9.126;2023-04-25T05:10:02;97932.94;;;14.21;52.69
60820;BME280;46641;48.904;9.126;2023-04-25T05:14:53;97942.72;;;14.27;52.75
60820;BME280;46641;48.904;9.126;2023-04-25T05:19:43;97937.47;;;14.63;51.76
60820;BME280;46641;48.904;9.126;2023-04-25T05:24:33;97932.56;;;14.82;51.19
60820;BME280;46641;48.904;9.126;2023-04-25T05:29:24;97934.47;;;14.88;51.06
60820;BME280;46641;48.904;9.126;2023-04-25T05:34:14;97937.34;;;14.93;51.05
60820;BME280;46641;48.904;9.126;2023-04-25T05:39:05;97931.28;;;14.92;50.84
60820;BME280;46641;48.904;9.126;2023-04-25T05:43:56;97945.06;;;14.94;50.71
60820;BME280;46641;48.904;9.126;2023-04-25T05:48:46;97935.53;;;14.93;50.74
60820;BME280;46641;48.904;9.126;2023-04-25T05:53:37;97937.34;;;14.93;50.97
60820;BME280;46641;48.904;9.126;2023-04-25T05:58:27;97938.97;;;14.94;50.98
60820;BME280;46641;48.904;9.126;2023-04-25T06:03:17;97945.91;;;14.95;50.93
60820;BME280;46641;48.904;9.126;2023-04-25T06:08:08;97943.88;;;14.97;51.08
60820;BME280;46641;48.904;9.126;2023-04-25T06:12:58;97950.97;;;14.96;50.97
60820;BME280;46641;48.904;9.126;2023-04-25T06:17:48;97946.31;;;14.99;50.75
60820;BME280;46641;48.904;9.126;2023-04-25T06:22:39;97945.94;;;15.02;50.86
60820;BME280;46641;48.904;9.126;2023-04-25T06:27:29;97939.84;;;15.01;51.08
60820;BME280;46641;48.904;9.126;2023-04-25T06:32:20;97935.84;;;15.05;50.83
60820;BME280;46641;48.904;9.126;2023-04-25T06:37:10;97932.63;;;15.10;50.73
60820;BME280;46641;48.904;9.126;2023-04-25T06:42:00;97939.50;;;15.11;50.80
60820;BME280;46641;48.904;9.126;2023-04-25T06:46:51;97938.53;;;15.12;50.71
60820;BME280;46641;48.904;9.126;2023-04-25T06:51:41;97944.41;;;15.14;50.84
60820;BME280;46641;48.904;9.126;2023-04-25T06:56:31;97939.56;;;15.17;50.62
60820;BME280;46641;48.904;9.126;2023-04-25T07:01:21;97943.03;;;15.18;50.72
60820;BME280;46641;48.904;9.126;2023-04-25T07:06:12;97944.69;;;14.76;51.75
60820;BME280;46641;48.904;9.126;2023-04-25T07:11:02;97945.19;;;14.86;51.40
60820;BME280;46641;48.904;9.126;2023-04-25T07:15:52;97946.06;;;14.93;51.47
60820;BME280;46641;48.904;9.126;2023-04-25T07:20:43;97949.03;;;14.47;52.34
60820;BME280;46641;48.904;9.126;2023-04-25T07:25:33;97951.28;;;14.87;51.11
60820;BME280;46641;48.904;9.126;2023-04-25T07:30:23;97959.72;;;15.04;50.86
60820;BME280;46641;48.904;9.126;2023-04-25T07:35:14;97963.69;;;15.14;50.63
60820;BME280;46641;48.904;9.126;2023-04-25T07:40:05;97956.66;;;15.22;50.29
60820;BME280;46641;48.904;9.126;2023-04-25T07:44:56;97967.63;;;15.25;50.38
60820;BME280;46641;48.904;9.126;2023-04-25T07:49:47;97969.09;;;15.28;50.26
60820;BME280;46641;48.904;9.126;2023-04-25T07:54:37;97970.06;;;15.27;50.58
60820;BME280;46641;48.904;9.126;2023-04-25T07:59:28;97974.53;;;15.26;50.46
60820;BME280;46641;48.904;9.126;2023-04-25T08:04:18;97977.81;;;15.28;50.41
60820;BME280;46641;48.904;9.126;2023-04-25T08:09:09;97983.06;;;15.28;50.52
60820;BME280;46641;48.904;9.126;2023-04-25T08:13:59;97994.44;;;15.29;50.55
60820;BME280;46641;48.904;9.126;2023-04-25T08:18:50;97997.25;;;15.27;50.70
60820;BME280;46641;48.904;9.126;2023-04-25T08:23:40;97999.88;;;15.27;50.57
60820;BME280;46641;48.904;9.126;2023-04-25T08:28:31;98014.72;;;15.28;50.68
60820;BME280;46641;48.904;9.126;2023-04-25T08:33:21;98019.59;;;15.31;50.47
60820;BME280;46641;48.904;9.126;2023-04-25T08:38:12;98017.13;;;15.30;50.63
60820;BME280;46641;48.904;9.126;2023-04-25T08:43:03;98029.50;;;15.29;50.48
60820;BME280;46641;48.904;9.126;2023-04-25T08:47:56;98036.63;;;15.29;50.58
60820;BME280;46641;48.904;9.126;2023-04-25T08:52:47;98046.34;;;15.28;50.70
60820;BME280;46641;48.904;9.126;2023-04-25T08:57:41;98053.63;;;15.26;50.98
60820;BME280;46641;48.904;9.126;2023-04-25T09:02:35;98057.28;;;15.25;51.14
60820;BME280;46641;48.904;9.126;2023-04-25T09:07:25;98061.72;;;15.25;50.94
60820;BME280;46641;48.904;9.126;2023-04-25T09:12:18;98082.00;;;15.24;51.05
60820;BME280;46641;48.904;9.126;2023-04-25T09:17:09;98074.09;;;15.24;51.30
60820;BME280;46641;48.904;9.126;2023-04-25T09:22:02;98090.91;;;15.23;51.14
60820;BME280;46641;48.904;9.126;2023-04-25T09:26:52;98097.19;;;15.22;51.25
60820;BME280;46641;48.904;9.126;2023-04-25T09:31:43;98099.00;;;15.22;50.99
60820;BME280;46641;48.904;9.126;2023-04-25T09:36:34;98106.09;;;15.21;51.11
60820;BME280;46641;48.904;9.126;2023-04-25T09:41:24;98113.00;;;15.22;51.16
60820;BME280;46641;48.904;9.126;2023-04-25T09:46:15;98112.81;;;15.24;51.28
60820;BME280;46641;48.904;9.126;2023-04-25T09:51:14;98119.91;;;15.23;51.18
60820;BME280;46641;48.904;9.126;2023-04-25T09:56:06;98132.91;;;15.25;51.15
60820;BME280;46641;48.904;9.126;2023-04-25T10:01:00;98151.00;;;15.28;51.07
60820;BME280;46641;48.904;9.126;2023-04-25T10:05:50;98154.63;;;15.27;51.25
60820;BME280;46641;48.904;9.126;2023-04-25T10:10:42;98168.38;;;15.22;51.51
60820;BME280;46641;48.904;9.126;2023-04-25T10:15:35;98184.72;;;15.17;51.71
60820;BME280;46641;48.904;9.126;2023-04-25T10:20:26;98192.63;;;15.17;51.56
60820;BME280;46641;48.904;9.126;2023-04-25T10:25:17;98191.81;;;15.17;51.67
60820;BME280;46641;48.904;9.126;2023-04-25T10:30:09;98198.75;;;15.18;51.67
60820;BME280;46641;48.904;9.126;2023-04-25T10:35:23;98198.31;;;15.14;51.85
60820;BME280;46641;48.904;9.126;2023-04-25T10:40:21;98201.31;;;15.11;51.85
60820;BME280;46641;48.904;9.126;2023-04-25T10:45:12;98198.84;;;15.10;51.89
60820;BME280;46641;48.904;9.126;2023-04-25T10:50:07;98195.56;;;15.08;52.27
60820;BME280;46641;48.904;9.126;2023-04-25T10:54:58;98210.56;;;15.07;51.92
60820;BME280;46641;48.904;9.126;2023-04-25T10:59:48;98214.00;;;15.08;52.07
60820;BME280;46641;48.904;9.126;2023-04-25T11:04:40;98214.19;;;15.06;52.09
60820;BME280;46641;48.904;9.126;2023-04-25T11:09:32;98215.00;;;15.07;52.05
60820;BME280;46641;48.904;9.126;2023-04-25T11:14:23;98223.94;;;15.06;52.06
60820;BME280;46641;48.904;9.126;2023-04-25T11:19:13;98234.66;;;15.04;52.23
60820;BME280;46641;48.904;9.126;2023-04-25T11:24:03;98236.66;;;15.02;52.19
60820;BME280;46641;48.904;9.126;2023-04-25T11:28:58;98230.56;;;15.02;52.33
60820;BME280;46641;48.904;9.126;2023-04-25T11:33:50;98235.84;;;15.02;52.15
60820;BME280;46641;48.904;9.126;2023-04-25T11:38:41;98239.91;;;15.04;52.02
60820;BME280;46641;48.904;9.126;2023-04-25T11:43:32;98239.91;;;15.04;52.08
60820;BME280;46641;48.904;9.126;2023-04-25T11:48:22;98241.94;;;15.02;52.08
60820;BME280;46641;48.904;9.126;2023-04-25T11:53:12;98238.66;;;15.00;52.34
60820;BME280;46641;48.904;9.126;2023-04-25T11:58:04;98254.31;;;15.02;52.05
60820;BME280;46641;48.904;9.126;2023-04-25T12:02:55;98249.66;;;15.04;52.01
60820;BME280;46641;48.904;9.126;2023-04-25T12:07:48;98257.56;;;15.04;52.19
60820;BME280;46641;48.904;9.126;2023-04-25T12:12:41;98260.84;;;15.06;52.12
60820;BME280;46641;48.904;9.126;2023-04-25T12:17:33;98263.63;;;15.04;52.01
60820;BME280;46641;48.904;9.126;2023-04-25T12:22:24;98267.94;;;15.05;52.27
60820;BME280;46641;48.904;9.126;2023-04-25T12:27:16;98268.75;;;15.06;52.22
60820;BME280;46641;48.904;9.126;2023-04-25T12:32:08;98271.00;;;15.09;52.08
60820;BME280;46641;48.904;9.126;2023-04-25T12:36:58;98271.81;;;15.09;52.00
60820;BME280;46641;48.904;9.126;2023-04-25T12:41:50;98266.34;;;15.11;52.19
60820;BME280;46641;48.904;9.126;2023-04-25T12:46:42;98274.75;;;15.14;52.17
60820;BME280;46641;48.904;9.126;2023-04-25T12:51:32;98282.38;;;15.24;51.83
60820;BME280;46641;48.904;9.126;2023-04-25T12:56:23;98276.34;;;15.30;51.30
60820;BME280;46641;48.904;9.126;2023-04-25T13:01:14;98286.53;;;15.33;51.81
60820;BME280;46641;48.904;9.126;2023-04-25T13:06:05;98279.28;;;15.35;51.70
60820;BME280;46641;48.904;9.126;2023-04-25T13:10:55;98280.91;;;15.36;51.81
60820;BME280;46641;48.904;9.126;2023-04-25T13:15:45;98271.63;;;15.40;51.75
60820;BME280;46641;48.904;9.126;2023-04-25T13:20:36;98278.97;;;15.45;51.66
60820;BME280;46641;48.904;9.126;2023-04-25T13:25:26;98279.88;;;14.78;53.21
60820;BME280;46641;48.904;9.126;2023-04-25T13:30:16;98283.56;;;14.92;53.48
60820;BME280;46641;48.904;9.126;2023-04-25T13:35:09;98283.91;;;14.89;52.93
60820;BME280;46641;48.904;9.126;2023-04-25T13:40:01;98286.88;;;14.71;53.74
60820;BME280;46641;48.904;9.126;2023-04-25T13:44:54;98290.63;;;14.77;53.31
60820;BME280;46641;48.904;9.126;2023-04-25T13:49:44;98292.84;;;14.65;53.58
60820;BME280;46641;48.904;9.126;2023-04-25T13:54:34;98290.56;;;15.00;52.84
60820;BME280;46641;48.904;9.126;2023-04-25T13:59:25;98297.44;;;15.30;51.99
60820;BME280;46641;48.904;9.126;2023-04-25T14:04:15;98287.19;;;15.50;51.70
60820;BME280;46641;48.904;9.126;2023-04-25T14:09:06;98297.03;;;15.63;51.26
60820;BME280;46641;48.904;9.126;2023-04-25T14:13:57;98296.53;;;15.68;51.31
60820;BME280;46641;48.904;9.126;2023-04-25T14:18:47;98292.13;;;15.75;50.94
60820;BME280;46641;48.904;9.126;2023-04-25T14:23:37;98291.97;;;15.76;51.12
60820;BME280;46641;48.904;9.126;2023-04-25T14:28:27;98294.03;;;15.81;50.94
60820;BME280;46641;48.904;9.126;2023-04-25T14:33:18;98295.28;;;15.85;50.41
60820;BME280;46641;48.904;9.126;2023-04-25T14:38:08;98312.63;;;14.99;52.68
60820;BME280;46641;48.904;9.126;2023-04-25T14:42:58;98317.66;;;15.08;52.23
60820;BME280;46641;48.904;9.126;2023-04-25T14:47:49;98307.19;;;15.00;52.27
60820;BME280;46641;48.904;9.126;2023-04-25T14:52:39;98313.34;;;15.07;51.80
60820;BME280;46641;48.904;9.126;2023-04-25T14:57:31;98310.09;;;15.05;51.70
60820;BME280;46641;48.904;9.126;2023-04-25T15:02:23;98318.81;;;15.06;51.77
60820;BME280;46641;48.904;9.126;2023-04-25T15:07:13;98312.31;;;14.64;53.03
60820;BME280;46641;48.904;9.126;2023-04-25T15:12:03;98312.66;;;15.28;51.52
60820;BME280;46641;48.904;9.126;2023-04-25T15:16:54;98310.22;;;15.63;50.86
60820;BME280;46641;48.904;9.126;2023-04-25T15:21:44;98316.72;;;15.46;51.30
60820;BME280;46641;48.904;9.126;2023-04-25T15:26:34;98321.53;;;15.72;50.68
60820;BME280;46641;48.904;9.126;2023-04-25T15:31:25;98320.31;;;15.89;50.39
60820;BME280;46641;48.904;9.126;2023-04-25T15:36:15;98320.22;;;15.97;50.21
60820;BME280;46641;48.904;9.126;2023-04-25T15:41:11;98321.47;;;16.01;50.27
60820;BME280;46641;48.904;9.126;2023-04-25T15:46:02;98326.19;;;16.06;50.18
60820;BME280;46641;48.904;9.126;2023-04-25T15:50:52;98318.50;;;16.11;49.85
60820;BME280;46641;48.904;9.126;2023-04-25T15:55:43;98324.06;;;16.16;50.14
60820;BME280;46641;48.904;9.126;2023-04-25T16:00:33;98323.31;;;16.22;49.88
60820;BME280;46641;48.904;9.126;2023-04-25T16:05:25;98317.03;;;16.23;49.80
60820;BME280;46641;48.904;9.126;2023-04-25T16:10:17;98325.22;;;16.28;49.76
60820;BME280;46641;48.904;9.126;2023-04-25T16:15:10;98325.00;;;16.30;49.90
60820;BME280;46641;48.904;9.126;2023-04-25T16:20:00;98325.44;;;16.33;49.72
60820;BME280;46641;48.904;9.126;2023-04-25T16:24:53;98331.53;;;16.34;49.81
60820;BME280;46641;48.904;9.126;2023-04-25T16:29:44;98328.72;;;16.35;49.94
60820;BME280;46641;48.904;9.126;2023-04-25T16:34:34;98337.47;;;16.36;49.42
60820;BME280;46641;48.904;9.126;2023-04-25T16:39:24;98337.63;;;16.34;49.60
60820;BME280;46641;48.904;9.126;2023-04-25T16:44:14;98338.66;;;16.33;49.88
60820;BME280;46641;48.904;9.126;2023-04-25T16:49:05;98345.56;;;16.34;49.75
60820;BME280;46641;48.904;9.126;2023-04-25T16:53:57;98352.88;;;16.32;49.81
60820;BME280;46641;48.904;9.126;2023-04-25T16:58:48;98352.06;;;16.32;49.92
60820;BME280;46641;48.904;9.126;2023-04-25T17:03:39;98362.19;;;16.28;50.17
60820;BME280;46641;48.904;9.126;2023-04-25T17:08:29;98372.66;;;15.26;51.33
60820;BME280;46641;48.904;9.126;2023-04-25T17:13:19;98384.03;;;15.41;50.71
60820;BME280;46641;48.904;9.126;2023-04-25T17:18:10;98389.00;;;15.36;49.97
60820;BME280;46641;48.904;9.126;2023-04-25T17:23:00;98404.41;;;14.72;51.87
60820;BME280;46641;48.904;9.126;2023-04-25T17:27:51;98411.28;;;15.19;51.36
60820;BME280;46641;48.904;9.126;2023-04-25T17:32:42;98418.13;;;15.43;50.42
60820;BME280;46641;48.904;9.126;2023-04-25T17:37:32;98421.94;;;15.55;50.26
60820;BME280;46641;48.904;9.126;2023-04-25T17:42:22;98435.44;;;15.60;50.32
60820;BME280;46641;48.904;9.126;2023-04-25T17:47:13;98441.78;;;15.66;50.24
60820;BME280;46641;48.904;9.126;2023-04-25T17:52:03;98443.72;;;15.72;50.20
60820;BME280;46641;48.904;9.126;2023-04-25T17:56:54;98426.91;;;15.73;50.33
60820;BME280;46641;48.904;9.126;2023-04-25T18:01:45;98427.06;;;15.72;50.37
60820;BME280;46641;48.904;9.126;2023-04-25T18:06:35;98438.00;;;15.69;50.51
60820;BME280;46641;48.904;9.126;2023-04-25T18:11:26;98439.34;;;15.64;50.64
60820;BME280;46641;48.904;9.126;2023-04-25T18:16:17;98440.34;;;15.63;50.84
60820;BME280;46641;48.904;9.126;2023-04-25T18:21:08;98450.44;;;15.60;50.86
60820;BME280;46641;48.904;9.126;2023-04-25T18:25:59;98457.34;;;15.61;50.87
60820;BME280;46641;48.904;9.126;2023-04-25T18:30:49;98466.44;;;15.58;50.98
60820;BME280;46641;48.904;9.126;2023-04-25T18:35:40;98471.25;;;15.55;51.15
60820;BME280;46641;48.904;9.126;2023-04-25T18:40:30;98461.25;;;15.50;51.21
60820;BME280;46641;48.904;9.126;2023-04-25T18:45:20;98465.88;;;15.48;51.19
60820;BME280;46641;48.904;9.126;2023-04-25T18:50:11;98468.88;;;15.45;51.33
60820;BME280;46641;48.904;9.126;2023-04-25T18:55:02;98488.72;;;15.41;51.44
60820;BME280;46641;48.904;9.126;2023-04-25T18:59:52;98499.41;;;15.39;51.40
60820;BME280;46641;48.904;9.126;2023-04-25T19:04:42;98505.03;;;15.36;51.37
60820;BME280;46641;48.904;9.126;2023-04-25T19:09:33;98516.75;;;15.34;51.54
60820;BME280;46641;48.904;9.126;2023-04-25T19:14:23;98510.88;;;15.32;51.50
60820;BME280;46641;48.904;9.126;2023-04-25T19:19:15;98516.31;;;15.30;51.46
60820;BME280;46641;48.904;9.126;2023-04-25T19:24:05;98518.47;;;15.27;51.56
60820;BME280;46641;48.904;9.126;2023-04-25T19:29:04;98526.56;;;15.25;51.66
60820;BME280;46641;48.904;9.126;2023-04-25T19:33:55;98525.09;;;15.23;51.73
60820;BME280;46641;48.904;9.126;2023-04-25T19:38:45;98517.56;;;15.19;51.74
60820;BME280;46641;48.904;9.126;2023-04-25T19:43:36;98529.91;;;15.19;51.61
60820;BME280;46641;48.904;9.126;2023-04-25T19:48:26;98533.56;;;15.18;51.71
60820;BME280;46641;48.904;9.126;2023-04-25T19:53:16;98539.00;;;15.16;51.75
60820;BME280;46641;48.904;9.126;2023-04-25T19:58:07;98538.53;;;15.13;51.91
60820;BME280;46641;48.904;9.126;2023-04-25T20:02:58;98530.81;;;15.11;51.74
60820;BME280;46641;48.904;9.126;2023-04-25T20:07:48;98533.59;;;15.10;51.82
60820;BME280;46641;48.904;9.126;2023-04-25T20:12:39;98537.25;;;15.09;51.91
60820;BME280;46641;48.904;9.126;2023-04-25T20:17:29;98540.84;;;15.08;51.90
60820;BME280;46641;48.904;9.126;2023-04-25T20:22:19;98545.50;;;15.06;51.87
60820;BME280;46641;48.904;9.126;2023-04-25T20:27:09;98556.03;;;15.06;51.91
60820;BME280;46641;48.904;9.126;2023-04-25T20:32:00;98559.03;;;15.03;51.74
60820;BME280;46641;48.904;9.126;2023-04-25T20:36:50;98566.28;;;15.01;51.94
60820;BME280;46641;48.904;9.126;2023-04-25T20:41:41;98568.28;;;14.99;52.11
60820;BME280;46641;48.904;9.126;2023-04-25T20:46:34;98562.88;;;14.92;52.07
60820;BME280;46641;48.904;9.126;2023-04-25T20:51:25;98556.63;;;14.93;52.11
60820;BME280;46641;48.904;9.126;2023-04-25T20:56:16;98553.97;;;14.93;51.67
60820;BME280;46641;48.904;9.126;2023-04-25T21:01:08;98551.69;;;14.90;51.96
60820;BME280;46641;48.904;9.126;2023-04-25T21:05:58;98557.97;;;14.89;52.14
60820;BME280;46641;48.904;9.126;2023-04-25T21:10:48;98560.75;;;14.87;52.10
60820;BME280;46641;48.904;9.126;2023-04-25T21:15:39;98564.41;;;14.86;52.37
60820;BME280;46641;48.904;9.126;2023-04-25T21:20:29;98575.09;;;14.85;51.98
60820;BME280;46641;48.904;9.126;2023-04-25T21:25:22;98564.91;;;14.82;52.14
60820;BME280;46641;48.904;9.126;2023-04-25T21:30:18;98572.00;;;14.81;52.53
60820;BME280;46641;48.904;9.126;2023-04-25T21:35:09;98577.44;;;14.80;52.35
60820;BME280;46641;48.904;9.126;2023-04-25T21:39:59;98575.97;;;14.77;52.35
60820;BME280;46641;48.904;9.126;2023-04-25T21:44:49;98573.34;;;14.77;52.38
60820;BME280;46641;48.904;9.126;2023-04-25T21:49:40;98574.50;;;14.75;52.33
60820;BME280;46641;48.904;9.126;2023-04-25T21:54:30;98587.84;;;14.73;52.33
60820;BME280;46641;48.904;9.126;2023-04-25T21:59:24;98583.41;;;14.73;52.27
60820;BME280;46641;48.904;9.126;2023-04-25T22:04:14;98582.94;;;14.70;51.99
60820;BME280;46641;48.904;9.126;2023-04-25T22:09:05;98584.75;;;14.69;52.28
60820;BME280;46641;48.904;9.126;2023-04-25T22:13:55;98590.34;;;14.66;52.31
60820;BME280;46641;48.904;9.126;2023-04-25T22:18:45;98593.97;;;14.65;52.16
60820;BME280;46641;48.904;9.126;2023-04-25T22:23:37;98592.66;;;14.61;52.29
60820;BME280;46641;48.904;9.126;2023-04-25T22:28:27;98604.34;;;14.59;52.44
60820;BME280;46641;48.904;9.126;2023-04-25T22:33:18;98605.38;;;14.58;52.33
60820;BME280;46641;48.904;9.126;2023-04-25T22:38:08;98608.00;;;14.58;52.30
60820;BME280;46641;48.904;9.126;2023-04-25T22:42:58;98612.44;;;14.57;52.22
60820;BME280;46641;48.904;9.126;2023-04-25T22:47:49;98616.25;;;14.55;52.49
60820;BME280;46641;48.904;9.126;2023-04-25T22:52:39;98618.88;;;14.55;52.63
60820;BME280;46641;48.904;9.126;2023-04-25T22:57:31;98619.88;;;14.54;52.37
60820;BME280;46641;48.904;9.126;2023-04-25T23:02:22;98622.50;;;14.54;52.46
60820;BME280;46641;48.904;9.126;2023-04-25T23:07:13;98624.47;;;14.52;52.32
60820;BME280;46641;48.904;9.126;2023-04-25T23:12:05;98626.44;;;14.49;52.45
60820;BME280;46641;48.904;9.126;2023-04-25T23:16:55;98631.72;;;14.49;52.60
60820;BME280;46641;48.904;9.126;2023-04-25T23:21:45;98622.50;;;14.45;52.62
60820;BME280;46641;48.904;9.126;2023-04-25T23:26:35;98621.66;;;14.45;52.46
60820;BME280;46641;48.904;9.126;2023-04-25T23:31:26;98625.44;;;14.42;52.73
60820;BME280;46641;48.904;9.126;2023-04-25T23:36:17;98614.91;;;14.42;52.71
60820;BME280;46641;48.904;9.126;2023-04-25T23:41:10;98624.63;;;14.42;52.75
60820;BME280;46641;48.904;9.126;2023-04-25T23:46:00;98636.00;;;14.42;52.60
60820;BME280;46641;48.904;9.126;2023-04-25T23:50:51;98642.44;;;14.40;52.49
60820;BME280;46641;48.904;9.126;2023-04-25T23:55:41;98633.06;;;14.37;52.65
